sensor_id;sensor_type;location;lat;lon;timestamp;temperature;humidity
26599;DHT22;14240;51.064;16.612;2023-04-01T00:00:54;9.80;99.90
26599;DHT22;14240;51.064;16.612;2023-04-01T00:03:21;9.80;99.90
26599;DHT22;14240;51.064;16.612;2023-04-01T00:05:47;9.80;99.90
26599;DHT22;14240;51.064;16.612;2023-04-01T00:08:13;9.80;99.90
26599;DHT22;14240;51.064;16.612;2023-04-01T00:10:38;9.80;99.90
26599;DHT22;14240;51.064;16.612;2023-04-01T00:13:04;9.80;99.90
26599;DHT22;14240;51.064;16.612;2023-04-01T00:15:30;9.80;99.90
26599;DHT22;14240;51.064;16.612;2023-04-01T00:17:56;9.80;99.90
26599;DHT22;14240;51.064;16.612;2023-04-01T00:20:22;9.80;99.90
26599;DHT22;14240;51.064;16.612;2023-04-01T00:22:48;9.80;99.90
26599;DHT22;14240;51.064;16.612;2023-04-01T00:25:14;9.80;99.90
26599;DHT22;14240;51.064;16.612;2023-04-01T00:27:40;9.80;99.90
26599;DHT22;14240;51.064;16.612;2023-04-01T00:30:06;9.80;99.90
26599;DHT22;14240;51.064;16.612;2023-04-01T00:32:33;9.80;99.90
26599;DHT22;14240;51.064;16.612;2023-04-01T00:34:59;9.80;99.90
26599;DHT22;14240;51.064;16.612;2023-04-01T00:37:26;9.80;99.90
26599;DHT22;14240;51.064;16.612;2023-04-01T00:39:52;9.80;99.90
26599;DHT22;14240;51.064;16.612;2023-04-01T00:42:18;9.80;99.90
26599;DHT22;14240;51.064;16.612;2023-04-01T00:44:47;9.80;99.90
26599;DHT22;14240;51.064;16.612;2023-04-01T00:47:15;9.80;99.90
26599;DHT22;14240;51.064;16.612;2023-04-01T00:49:46;9.90;99.90
26599;DHT22;14240;51.064;16.612;2023-04-01T00:52:16;9.80;99.90
26599;DHT22;14240;51.064;16.612;2023-04-01T00:54:45;9.70;99.90
26599;DHT22;14240;51.064;16.612;2023-04-01T00:57:21;9.80;99.90
26599;DHT22;14240;51.064;16.612;2023-04-01T00:59:49;9.70;99.90
26599;DHT22;14240;51.064;16.612;2023-04-01T01:02:18;9.80;99.90
26599;DHT22;14240;51.064;16.612;2023-04-01T01:04:45;9.70;99.90
26599;DHT22;14240;51.064;16.612;2023-04-01T01:17:30;9.70;99.90
26599;DHT22;14240;51.064;16.612;2023-04-01T01:36:26;9.70;99.90
26599;DHT22;14240;51.064;16.612;2023-04-01T01:38:55;9.70;99.90
26599;DHT22;14240;51.064;16.612;2023-04-01T01:41:24;9.70;99.90
26599;DHT22;14240;51.064;16.612;2023-04-01T01:43:53;9.70;99.90
26599;DHT22;14240;51.064;16.612;2023-04-01T01:46:23;9.70;99.90
26599;DHT22;14240;51.064;16.612;2023-04-01T01:48:51;9.70;99.90
26599;DHT22;14240;51.064;16.612;2023-04-01T01:51:19;9.80;99.90
26599;DHT22;14240;51.064;16.612;2023-04-01T01:53:45;9.80;99.90
26599;DHT22;14240;51.064;16.612;2023-04-01T01:56:12;9.80;99.90
26599;DHT22;14240;51.064;16.612;2023-04-01T01:58:40;9.80;99.90
26599;DHT22;14240;51.064;16.612;2023-04-01T02:01:24;9.80;99.90
26599;DHT22;14240;51.064;16.612;2023-04-01T02:03:52;9.80;99.90
26599;DHT22;14240;51.064;16.612;2023-04-01T02:06:21;9.80;99.90
26599;DHT22;14240;51.064;16.612;2023-04-01T02:09:02;9.80;99.90
26599;DHT22;14240;51.064;16.612;2023-04-01T02:12:02;9.80;99.90
26599;DHT22;14240;51.064;16.612;2023-04-01T02:17:34;9.80;99.90
26599;DHT22;14240;51.064;16.612;2023-04-01T02:20:11;9.80;99.90
26599;DHT22;14240;51.064;16.612;2023-04-01T02:22:50;9.80;99.90
26599;DHT22;14240;51.064;16.612;2023-04-01T02:25:20;9.80;99.90
26599;DHT22;14240;51.064;16.612;2023-04-01T02:27:47;9.80;99.90
26599;DHT22;14240;51.064;16.612;2023-04-01T02:30:15;9.80;99.90
26599;DHT22;14240;51.064;16.612;2023-04-01T02:32:41;9.80;99.90
26599;DHT22;14240;51.064;16.612;2023-04-01T02:35:10;9.80;99.90
26599;DHT22;14240;51.064;16.612;2023-04-01T02:37:38;9.80;99.90
26599;DHT22;14240;51.064;16.612;2023-04-01T02:40:06;9.80;99.90
26599;DHT22;14240;51.064;16.612;2023-04-01T02:42:33;9.80;99.90
26599;DHT22;14240;51.064;16.612;2023-04-01T02:44:59;9.80;99.90
26599;DHT22;14240;51.064;16.612;2023-04-01T02:47:25;9.80;99.90
26599;DHT22;14240;51.064;16.612;2023-04-01T02:49:50;9.80;99.90
26599;DHT22;14240;51.064;16.612;2023-04-01T02:52:16;9.80;99.90
26599;DHT22;14240;51.064;16.612;2023-04-01T02:54:42;9.80;99.90
26599;DHT22;14240;51.064;16.612;2023-04-01T02:57:07;9.80;99.90
26599;DHT22;14240;51.064;16.612;2023-04-01T02:59:33;9.80;99.90
26599;DHT22;14240;51.064;16.612;2023-04-01T03:01:59;9.80;99.90
26599;DHT22;14240;51.064;16.612;2023-04-01T03:04:24;9.80;99.90
26599;DHT22;14240;51.064;16.612;2023-04-01T03:06:50;9.80;99.90
26599;DHT22;14240;51.064;16.612;2023-04-01T03:09:16;9.80;99.90
26599;DHT22;14240;51.064;16.612;2023-04-01T03:11:42;9.80;99.90
26599;DHT22;14240;51.064;16.612;2023-04-01T03:14:08;9.80;99.90
26599;DHT22;14240;51.064;16.612;2023-04-01T03:16:33;9.80;99.90
26599;DHT22;14240;51.064;16.612;2023-04-01T03:18:59;9.80;99.90
26599;DHT22;14240;51.064;16.612;2023-04-01T03:21:27;9.80;99.90
26599;DHT22;14240;51.064;16.612;2023-04-01T03:23:53;9.80;99.90
26599;DHT22;14240;51.064;16.612;2023-04-01T03:26:18;9.80;99.90
26599;DHT22;14240;51.064;16.612;2023-04-01T03:28:45;9.80;99.90
26599;DHT22;14240;51.064;16.612;2023-04-01T03:31:11;9.70;99.90
26599;DHT22;14240;51.064;16.612;2023-04-01T03:33:37;9.80;99.90
26599;DHT22;14240;51.064;16.612;2023-04-01T03:36:03;9.70;99.90
26599;DHT22;14240;51.064;16.612;2023-04-01T03:38:32;9.70;99.90
26599;DHT22;14240;51.064;16.612;2023-04-01T03:40:58;9.70;99.90
26599;DHT22;14240;51.064;16.612;2023-04-01T03:43:24;9.80;99.90
26599;DHT22;14240;51.064;16.612;2023-04-01T03:45:51;9.70;99.90
26599;DHT22;14240;51.064;16.612;2023-04-01T03:48:18;9.70;99.90
26599;DHT22;14240;51.064;16.612;2023-04-01T03:50:44;9.70;99.90
26599;DHT22;14240;51.064;16.612;2023-04-01T03:53:10;9.70;99.90
26599;DHT22;14240;51.064;16.612;2023-04-01T03:55:36;9.70;99.90
26599;DHT22;14240;51.064;16.612;2023-04-01T03:58:03;9.70;99.90
26599;DHT22;14240;51.064;16.612;2023-04-01T04:00:29;9.70;99.90
26599;DHT22;14240;51.064;16.612;2023-04-01T04:02:55;9.70;99.90
26599;DHT22;14240;51.064;16.612;2023-04-01T04:05:25;9.70;99.90
26599;DHT22;14240;51.064;16.612;2023-04-01T04:07:51;9.70;99.90
26599;DHT22;14240;51.064;16.612;2023-04-01T04:10:17;9.70;99.90
26599;DHT22;14240;51.064;16.612;2023-04-01T04:12:43;9.70;99.90
26599;DHT22;14240;51.064;16.612;2023-04-01T04:15:10;9.70;99.90
26599;DHT22;14240;51.064;16.612;2023-04-01T04:17:35;9.70;99.90
26599;DHT22;14240;51.064;16.612;2023-04-01T04:20:01;9.70;99.90
26599;DHT22;14240;51.064;16.612;2023-04-01T04:22:27;9.70;99.90
26599;DHT22;14240;51.064;16.612;2023-04-01T04:24:53;9.70;99.90
26599;DHT22;14240;51.064;16.612;2023-04-01T04:27:18;9.70;99.90
26599;DHT22;14240;51.064;16.612;2023-04-01T04:29:44;9.70;99.90
26599;DHT22;14240;51.064;16.612;2023-04-01T04:32:10;9.70;99.90
26599;DHT22;14240;51.064;16.612;2023-04-01T04:34:36;9.70;99.90
26599;DHT22;14240;51.064;16.612;2023-04-01T04:37:01;9.70;99.90
26599;DHT22;14240;51.064;16.612;2023-04-01T04:39:27;9.70;99.90
26599;DHT22;14240;51.064;16.612;2023-04-01T04:41:53;9.70;99.90
26599;DHT22;14240;51.064;16.612;2023-04-01T04:44:18;9.70;99.90
26599;DHT22;14240;51.064;16.612;2023-04-01T04:46:44;9.70;99.90
26599;DHT22;14240;51.064;16.612;2023-04-01T04:49:10;9.70;99.90
26599;DHT22;14240;51.064;16.612;2023-04-01T04:51:36;9.70;99.90
26599;DHT22;14240;51.064;16.612;2023-04-01T04:54:05;9.70;99.90
26599;DHT22;14240;51.064;16.612;2023-04-01T04:56:31;9.60;99.90
26599;DHT22;14240;51.064;16.612;2023-04-01T04:58:58;9.60;99.90
26599;DHT22;14240;51.064;16.612;2023-04-01T05:01:24;9.60;99.90
26599;DHT22;14240;51.064;16.612;2023-04-01T05:03:50;9.60;99.90
26599;DHT22;14240;51.064;16.612;2023-04-01T05:06:17;9.60;99.90
26599;DHT22;14240;51.064;16.612;2023-04-01T05:08:44;9.70;99.90
26599;DHT22;14240;51.064;16.612;2023-04-01T05:11:16;9.70;99.90
26599;DHT22;14240;51.064;16.612;2023-04-01T05:13:43;9.70;99.90
26599;DHT22;14240;51.064;16.612;2023-04-01T05:16:17;9.70;99.90
26599;DHT22;14240;51.064;16.612;2023-04-01T05:18:43;9.70;99.90
26599;DHT22;14240;51.064;16.612;2023-04-01T05:21:10;9.70;99.90
26599;DHT22;14240;51.064;16.612;2023-04-01T05:23:36;9.00;99.90
26599;DHT22;14240;51.064;16.612;2023-04-01T05:26:06;9.70;99.90
26599;DHT22;14240;51.064;16.612;2023-04-01T05:28:32;9.70;99.90
26599;DHT22;14240;51.064;16.612;2023-04-01T05:30:59;9.70;99.90
26599;DHT22;14240;51.064;16.612;2023-04-01T05:33:29;9.70;99.90
26599;DHT22;14240;51.064;16.612;2023-04-01T05:35:55;9.80;99.90
26599;DHT22;14240;51.064;16.612;2023-04-01T05:38:21;9.70;99.90
26599;DHT22;14240;51.064;16.612;2023-04-01T05:40:47;9.70;99.90
26599;DHT22;14240;51.064;16.612;2023-04-01T05:43:13;9.70;99.90
26599;DHT22;14240;51.064;16.612;2023-04-01T05:45:39;9.80;99.90
26599;DHT22;14240;51.064;16.612;2023-04-01T05:48:05;9.80;99.90
26599;DHT22;14240;51.064;16.612;2023-04-01T05:50:31;9.80;99.90
26599;DHT22;14240;51.064;16.612;2023-04-01T05:52:56;9.80;99.90
26599;DHT22;14240;51.064;16.612;2023-04-01T05:55:22;9.80;99.90
26599;DHT22;14240;51.064;16.612;2023-04-01T05:57:48;9.80;99.90
26599;DHT22;14240;51.064;16.612;2023-04-01T06:00:16;9.80;99.90
26599;DHT22;14240;51.064;16.612;2023-04-01T06:02:42;9.80;99.90
26599;DHT22;14240;51.064;16.612;2023-04-01T06:07:44;9.80;99.90
26599;DHT22;14240;51.064;16.612;2023-04-01T06:10:20;9.80;99.90
26599;DHT22;14240;51.064;16.612;2023-04-01T06:15:35;9.80;99.90
26599;DHT22;14240;51.064;16.612;2023-04-01T06:23:34;9.90;99.90
26599;DHT22;14240;51.064;16.612;2023-04-01T06:26:10;9.90;99.90
26599;DHT22;14240;51.064;16.612;2023-04-01T06:34:05;9.90;99.90
26599;DHT22;14240;51.064;16.612;2023-04-01T06:36:47;9.90;99.90
26599;DHT22;14240;51.064;16.612;2023-04-01T06:44:33;10.00;99.90
26599;DHT22;14240;51.064;16.612;2023-04-01T06:55:43;10.10;99.90
26599;DHT22;14240;51.064;16.612;2023-04-01T06:58:36;10.20;99.90
26599;DHT22;14240;51.064;16.612;2023-04-01T07:01:29;10.20;99.90
26599;DHT22;14240;51.064;16.612;2023-04-01T07:04:02;10.20;99.90
26599;DHT22;14240;51.064;16.612;2023-04-01T07:06:52;10.20;99.90
26599;DHT22;14240;51.064;16.612;2023-04-01T07:09:49;10.20;99.90
26599;DHT22;14240;51.064;16.612;2023-04-01T07:12:25;10.20;99.90
26599;DHT22;14240;51.064;16.612;2023-04-01T07:14:54;10.30;99.90
26599;DHT22;14240;51.064;16.612;2023-04-01T07:17:22;10.30;99.90
26599;DHT22;14240;51.064;16.612;2023-04-01T07:20:11;10.30;99.90
26599;DHT22;14240;51.064;16.612;2023-04-01T07:22:51;10.30;99.90
26599;DHT22;14240;51.064;16.612;2023-04-01T07:25:30;10.30;99.90
26599;DHT22;14240;51.064;16.612;2023-04-01T07:28:05;10.30;99.90
26599;DHT22;14240;51.064;16.612;2023-04-01T07:30:52;10.40;99.90
26599;DHT22;14240;51.064;16.612;2023-04-01T07:39:04;10.40;99.90
26599;DHT22;14240;51.064;16.612;2023-04-01T07:44:00;10.50;99.90
26599;DHT22;14240;51.064;16.612;2023-04-01T07:46:38;10.60;99.90
26599;DHT22;14240;51.064;16.612;2023-04-01T07:51:43;10.70;99.90
26599;DHT22;14240;51.064;16.612;2023-04-01T07:54:23;10.80;99.90
26599;DHT22;14240;51.064;16.612;2023-04-01T07:57:12;10.80;99.90
26599;DHT22;14240;51.064;16.612;2023-04-01T07:59:59;11.00;99.90
26599;DHT22;14240;51.064;16.612;2023-04-01T08:05:26;11.30;99.90
26599;DHT22;14240;51.064;16.612;2023-04-01T08:19:15;11.80;99.90
26599;DHT22;14240;51.064;16.612;2023-04-01T08:21:47;12.00;99.90
26599;DHT22;14240;51.064;16.612;2023-04-01T08:26:53;12.40;99.90
26599;DHT22;14240;51.064;16.612;2023-04-01T08:29:24;12.50;99.90
26599;DHT22;14240;51.064;16.612;2023-04-01T08:32:03;12.50;99.90
26599;DHT22;14240;51.064;16.612;2023-04-01T08:34:38;12.40;99.90
26599;DHT22;14240;51.064;16.612;2023-04-01T08:37:11;12.40;99.90
26599;DHT22;14240;51.064;16.612;2023-04-01T08:39:46;12.50;99.90
26599;DHT22;14240;51.064;16.612;2023-04-01T08:53:45;12.70;99.90
26599;DHT22;14240;51.064;16.612;2023-04-01T08:56:39;12.80;99.90
26599;DHT22;14240;51.064;16.612;2023-04-01T09:04:58;13.00;99.90
26599;DHT22;14240;51.064;16.612;2023-04-01T09:13:20;12.90;99.90
26599;DHT22;14240;51.064;16.612;2023-04-01T09:19:04;12.60;99.90
26599;DHT22;14240;51.064;16.612;2023-04-01T09:27:18;12.80;99.90
26599;DHT22;14240;51.064;16.612;2023-04-01T09:35:22;12.90;99.90
26599;DHT22;14240;51.064;16.612;2023-04-01T09:38:21;12.90;99.90
26599;DHT22;14240;51.064;16.612;2023-04-01T09:41:01;12.90;99.90
26599;DHT22;14240;51.064;16.612;2023-04-01T09:44:03;12.80;99.90
26599;DHT22;14240;51.064;16.612;2023-04-01T09:55:06;12.80;99.90
26599;DHT22;14240;51.064;16.612;2023-04-01T09:58:00;12.70;99.90
26599;DHT22;14240;51.064;16.612;2023-04-01T10:20:54;12.10;99.90
26599;DHT22;14240;51.064;16.612;2023-04-01T10:32:48;12.00;99.90
26599;DHT22;14240;51.064;16.612;2023-04-01T10:43:41;12.20;99.90
26599;DHT22;14240;51.064;16.612;2023-04-01T10:51:20;12.60;99.90
26599;DHT22;14240;51.064;16.612;2023-04-01T10:56:46;12.70;99.90
26599;DHT22;14240;51.064;16.612;2023-04-01T11:33:26;14.30;99.90
26599;DHT22;14240;51.064;16.612;2023-04-01T11:39:17;14.40;99.90
26599;DHT22;14240;51.064;16.612;2023-04-01T11:41:58;14.40;99.90
26599;DHT22;14240;51.064;16.612;2023-04-01T11:44:29;14.40;99.90
26599;DHT22;14240;51.064;16.612;2023-04-01T11:56:07;14.20;99.90
26599;DHT22;14240;51.064;16.612;2023-04-01T12:04:57;13.90;99.90
26599;DHT22;14240;51.064;16.612;2023-04-01T12:07:27;14.00;99.90
26599;DHT22;14240;51.064;16.612;2023-04-01T12:19:23;14.10;99.90
26599;DHT22;14240;51.064;16.612;2023-04-01T12:22:06;14.30;99.90
26599;DHT22;14240;51.064;16.612;2023-04-01T12:32:55;14.60;99.90
26599;DHT22;14240;51.064;16.612;2023-04-01T12:35:54;14.60;99.90
26599;DHT22;14240;51.064;16.612;2023-04-01T12:44:13;14.40;99.90
26599;DHT22;14240;51.064;16.612;2023-04-01T12:58:43;14.20;99.90
26599;DHT22;14240;51.064;16.612;2023-04-01T13:09:11;14.50;99.90
26599;DHT22;14240;51.064;16.612;2023-04-01T13:17:19;14.90;99.90
26599;DHT22;14240;51.064;16.612;2023-04-01T13:28:25;14.40;99.90
26599;DHT22;14240;51.064;16.612;2023-04-01T13:31:06;14.20;99.90
26599;DHT22;14240;51.064;16.612;2023-04-01T13:33:44;14.20;99.90
26599;DHT22;14240;51.064;16.612;2023-04-01T13:36:24;14.20;99.90
26599;DHT22;14240;51.064;16.612;2023-04-01T13:47:00;14.10;99.90
26599;DHT22;14240;51.064;16.612;2023-04-01T13:49:53;14.20;99.90
26599;DHT22;14240;51.064;16.612;2023-04-01T13:53:23;14.30;99.90
26599;DHT22;14240;51.064;16.612;2023-04-01T13:55:44;14.40;99.90
26599;DHT22;14240;51.064;16.612;2023-04-01T14:04:00;14.50;99.90
26599;DHT22;14240;51.064;16.612;2023-04-01T14:12:41;14.50;99.90
26599;DHT22;14240;51.064;16.612;2023-04-01T14:29:10;14.50;99.90
26599;DHT22;14240;51.064;16.612;2023-04-01T14:31:45;14.50;99.90
26599;DHT22;14240;51.064;16.612;2023-04-01T14:43:10;14.40;99.90
26599;DHT22;14240;51.064;16.612;2023-04-01T14:46:00;14.30;99.90
26599;DHT22;14240;51.064;16.612;2023-04-01T14:48:48;14.30;99.90
26599;DHT22;14240;51.064;16.612;2023-04-01T14:51:33;14.30;99.90
26599;DHT22;14240;51.064;16.612;2023-04-01T14:56:41;14.30;99.90
26599;DHT22;14240;51.064;16.612;2023-04-01T15:02:29;14.30;99.90
26599;DHT22;14240;51.064;16.612;2023-04-01T15:13:56;14.20;99.90
26599;DHT22;14240;51.064;16.612;2023-04-01T15:30:29;13.80;99.90
26599;DHT22;14240;51.064;16.612;2023-04-01T15:38:11;13.50;99.90
26599;DHT22;14240;51.064;16.612;2023-04-01T15:40:49;13.40;99.90
26599;DHT22;14240;51.064;16.612;2023-04-01T15:43:27;13.40;99.90
26599;DHT22;14240;51.064;16.612;2023-04-01T15:51:56;13.20;99.90
26599;DHT22;14240;51.064;16.612;2023-04-01T15:54:25;13.20;99.90
26599;DHT22;14240;51.064;16.612;2023-04-01T15:57:01;13.10;99.90
26599;DHT22;14240;51.064;16.612;2023-04-01T16:10:55;12.90;99.90
26599;DHT22;14240;51.064;16.612;2023-04-01T16:18:45;12.60;99.90
26599;DHT22;14240;51.064;16.612;2023-04-01T16:26:47;12.50;99.90
26599;DHT22;14240;51.064;16.612;2023-04-01T16:29:29;12.40;99.90
26599;DHT22;14240;51.064;16.612;2023-04-01T16:32:22;12.40;99.90
26599;DHT22;14240;51.064;16.612;2023-04-01T16:37:47;12.30;99.90
26599;DHT22;14240;51.064;16.612;2023-04-01T16:43:27;12.30;99.90
26599;DHT22;14240;51.064;16.612;2023-04-01T16:54:14;12.20;99.90
26599;DHT22;14240;51.064;16.612;2023-04-01T16:56:54;12.10;99.90
26599;DHT22;14240;51.064;16.612;2023-04-01T16:59:27;12.10;99.90
26599;DHT22;14240;51.064;16.612;2023-04-01T17:07:44;11.90;99.90
26599;DHT22;14240;51.064;16.612;2023-04-01T17:13:29;11.80;99.90
26599;DHT22;14240;51.064;16.612;2023-04-01T17:24:46;11.70;99.90
26599;DHT22;14240;51.064;16.612;2023-04-01T17:27:47;11.60;99.90
26599;DHT22;14240;51.064;16.612;2023-04-01T17:33:14;11.60;99.90
26599;DHT22;14240;51.064;16.612;2023-04-01T17:36:40;11.60;99.90
26599;DHT22;14240;51.064;16.612;2023-04-01T18:01:46;11.60;99.90
26599;DHT22;14240;51.064;16.612;2023-04-01T18:10:38;11.60;99.90
26599;DHT22;14240;51.064;16.612;2023-04-01T18:24:11;11.60;99.90
26599;DHT22;14240;51.064;16.612;2023-04-01T18:26:44;11.60;99.90
26599;DHT22;14240;51.064;16.612;2023-04-01T18:34:57;11.60;99.90
26599;DHT22;14240;51.064;16.612;2023-04-01T18:37:42;11.60;99.90
26599;DHT22;14240;51.064;16.612;2023-04-01T18:40:38;11.60;99.90
26599;DHT22;14240;51.064;16.612;2023-04-01T18:47:14;11.60;99.90
26599;DHT22;14240;51.064;16.612;2023-04-01T18:49:21;11.60;99.90
26599;DHT22;14240;51.064;16.612;2023-04-01T18:51:55;11.60;99.90
26599;DHT22;14240;51.064;16.612;2023-04-01T18:54:41;11.50;99.90
26599;DHT22;14240;51.064;16.612;2023-04-01T18:57:16;11.60;99.90
26599;DHT22;14240;51.064;16.612;2023-04-01T18:59:53;11.50;99.90
26599;DHT22;14240;51.064;16.612;2023-04-01T19:05:18;11.50;99.90
26599;DHT22;14240;51.064;16.612;2023-04-01T19:07:49;11.50;99.90
26599;DHT22;14240;51.064;16.612;2023-04-01T19:13:30;11.40;99.90
26599;DHT22;14240;51.064;16.612;2023-04-01T19:22:08;10.90;99.90
26599;DHT22;14240;51.064;16.612;2023-04-01T19:27:22;10.60;99.90
26599;DHT22;14240;51.064;16.612;2023-04-01T19:32:51;10.40;99.90
26599;DHT22;14240;51.064;16.612;2023-04-01T19:35:47;10.30;99.90
26599;DHT22;14240;51.064;16.612;2023-04-01T19:38:40;10.30;99.90
26599;DHT22;14240;51.064;16.612;2023-04-01T19:41:29;10.20;99.90
26599;DHT22;14240;51.064;16.612;2023-04-01T19:44:02;10.20;99.90
26599;DHT22;14240;51.064;16.612;2023-04-01T19:46:55;10.10;99.90
26599;DHT22;14240;51.064;16.612;2023-04-01T19:52:23;10.00;99.90
26599;DHT22;14240;51.064;16.612;2023-04-01T20:01:03;9.80;99.90
26599;DHT22;14240;51.064;16.612;2023-04-01T20:03:54;9.80;99.90
26599;DHT22;14240;51.064;16.612;2023-04-01T20:06:38;9.70;99.90
26599;DHT22;14240;51.064;16.612;2023-04-01T20:12:49;9.60;99.90
26599;DHT22;14240;51.064;16.612;2023-04-01T20:14:57;9.60;99.90
26599;DHT22;14240;51.064;16.612;2023-04-01T20:17:47;9.50;99.90
26599;DHT22;14240;51.064;16.612;2023-04-01T20:20:23;9.50;99.90
26599;DHT22;14240;51.064;16.612;2023-04-01T20:23:25;9.40;99.90
26599;DHT22;14240;51.064;16.612;2023-04-01T20:26:22;9.40;99.90
26599;DHT22;14240;51.064;16.612;2023-04-01T20:32:39;9.30;99.90
26599;DHT22;14240;51.064;16.612;2023-04-01T20:40:54;9.10;99.90
26599;DHT22;14240;51.064;16.612;2023-04-01T20:50:58;9.00;99.90
26599;DHT22;14240;51.064;16.612;2023-04-01T21:04:32;8.90;99.90
26599;DHT22;14240;51.064;16.612;2023-04-01T21:07:15;8.80;99.90
26599;DHT22;14240;51.064;16.612;2023-04-01T21:12:25;8.80;99.90
26599;DHT22;14240;51.064;16.612;2023-04-01T21:15:59;8.80;99.90
26599;DHT22;14240;51.064;16.612;2023-04-01T21:51:33;8.80;99.90
26599;DHT22;14240;51.064;16.612;2023-04-01T22:00:08;8.80;99.90
26599;DHT22;14240;51.064;16.612;2023-04-01T22:05:34;8.80;99.90
26599;DHT22;14240;51.064;16.612;2023-04-01T22:10:41;8.70;99.90
26599;DHT22;14240;51.064;16.612;2023-04-01T22:13:23;8.70;99.90
26599;DHT22;14240;51.064;16.612;2023-04-01T22:18:31;8.70;99.90
26599;DHT22;14240;51.064;16.612;2023-04-01T22:26:26;8.60;99.90
26599;DHT22;14240;51.064;16.612;2023-04-01T22:29:09;8.60;99.90
26599;DHT22;14240;51.064;16.612;2023-04-01T22:39:41;8.50;99.90
26599;DHT22;14240;51.064;16.612;2023-04-01T22:42:39;8.50;99.90
26599;DHT22;14240;51.064;16.612;2023-04-01T22:56:17;8.40;99.90
26599;DHT22;14240;51.064;16.612;2023-04-01T22:58:55;8.40;99.90
26599;DHT22;14240;51.064;16.612;2023-04-01T23:01:29;8.40;99.90
26599;DHT22;14240;51.064;16.612;2023-04-01T23:03:56;8.40;99.90
26599;DHT22;14240;51.064;16.612;2023-04-01T23:06:37;8.30;99.90
26599;DHT22;14240;51.064;16.612;2023-04-01T23:09:08;8.30;99.90
26599;DHT22;14240;51.064;16.612;2023-04-01T23:11:41;8.20;99.90
26599;DHT22;14240;51.064;16.612;2023-04-01T23:19:54;8.10;99.90
26599;DHT22;14240;51.064;16.612;2023-04-01T23:38:13;8.00;99.90
26599;DHT22;14240;51.064;16.612;2023-04-01T23:40:40;8.00;99.90
26599;DHT22;14240;51.064;16.612;2023-04-01T23:43:58;8.10;99.90
26599;DHT22;14240;51.064;16.612;2023-04-01T23:46:15;8.00;99.90
26599;DHT22;14240;51.064;16.612;2023-04-01T23:48:43;7.90;99.90
26599;DHT22;14240;51.064;16.612;2023-04-01T23:51:18;7.80;99.90
26599;DHT22;14240;51.064;16.612;2023-04-01T23:53:46;7.80;99.90
26599;DHT22;14240;51.064;16.612;2023-04-01T23:56:16;7.70;99.90
26599;DHT22;14240;51.064;16.612;2023-04-01T23:58:44;7.70;99.90
